sensor_id;sensor_type;location;lat;lon;timestamp;P1;durP1;ratioP1;P2;durP2;ratioP2
7683;SDS011;3884;48.616;12.872;2022-10-16T00:00:48;9.30;;;4.70;;
7683;SDS011;3884;48.616;12.872;2022-10-16T00:03:15;4.80;;;4.07;;
7683;SDS011;3884;48.616;12.872;2022-10-16T00:05:43;6.57;;;3.50;;
7683;SDS011;3884;48.616;12.872;2022-10-16T00:08:10;9.80;;;3.90;;
7683;SDS011;3884;48.616;12.872;2022-10-16T00:10:38;7.53;;;3.90;;
7683;SDS011;3884;48.616;12.872;2022-10-16T00:13:05;8.27;;;3.40;;
7683;SDS011;3884;48.616;12.872;2022-10-16T00:15:35;8.67;;;3.57;;
7683;SDS011;3884;48.616;12.872;2022-10-16T00:18:02;3.50;;;2.93;;
7683;SDS011;3884;48.616;12.872;2022-10-16T00:20:30;11.00;;;3.47;;
7683;SDS011;3884;48.616;12.872;2022-10-16T00:22:59;9.23;;;3.47;;
7683;SDS011;3884;48.616;12.872;2022-10-16T00:25:27;3.30;;;3.10;;
7683;SDS011;3884;48.616;12.872;2022-10-16T00:27:54;8.23;;;3.83;;
7683;SDS011;3884;48.616;12.872;2022-10-16T00:30:21;5.00;;;3.50;;
7683;SDS011;3884;48.616;12.872;2022-10-16T00:32:49;9.43;;;3.70;;
7683;SDS011;3884;48.616;12.872;2022-10-16T00:35:16;4.10;;;3.43;;
7683;SDS011;3884;48.616;12.872;2022-10-16T00:37:43;5.03;;;4.00;;
7683;SDS011;3884;48.616;12.872;2022-10-16T00:40:11;7.17;;;4.23;;
7683;SDS011;3884;48.616;12.872;2022-10-16T00:42:38;4.30;;;3.80;;
7683;SDS011;3884;48.616;12.872;2022-10-16T00:45:06;5.53;;;4.30;;
7683;SDS011;3884;48.616;12.872;2022-10-16T00:47:36;6.13;;;4.03;;
7683;SDS011;3884;48.616;12.872;2022-10-16T00:50:08;6.40;;;4.80;;
7683;SDS011;3884;48.616;12.872;2022-10-16T00:52:38;8.07;;;4.10;;
7683;SDS011;3884;48.616;12.872;2022-10-16T00:55:09;7.10;;;4.00;;
7683;SDS011;3884;48.616;12.872;2022-10-16T00:57:37;7.77;;;4.40;;
7683;SDS011;3884;48.616;12.872;2022-10-16T01:00:05;4.33;;;3.87;;
7683;SDS011;3884;48.616;12.872;2022-10-16T01:02:34;7.27;;;3.30;;
7683;SDS011;3884;48.616;12.872;2022-10-16T01:05:02;3.20;;;2.90;;
7683;SDS011;3884;48.616;12.872;2022-10-16T01:07:34;5.97;;;3.83;;
7683;SDS011;3884;48.616;12.872;2022-10-16T01:10:11;5.30;;;3.27;;
7683;SDS011;3884;48.616;12.872;2022-10-16T01:12:48;5.67;;;3.27;;
7683;SDS011;3884;48.616;12.872;2022-10-16T01:15:21;8.67;;;3.47;;
7683;SDS011;3884;48.616;12.872;2022-10-16T01:17:57;9.20;;;3.63;;
7683;SDS011;3884;48.616;12.872;2022-10-16T01:20:30;7.40;;;3.67;;
7683;SDS011;3884;48.616;12.872;2022-10-16T01:23:04;4.03;;;3.53;;
7683;SDS011;3884;48.616;12.872;2022-10-16T01:25:39;5.90;;;4.17;;
7683;SDS011;3884;48.616;12.872;2022-10-16T01:28:24;5.40;;;3.93;;
7683;SDS011;3884;48.616;12.872;2022-10-16T01:30:58;8.97;;;4.47;;
7683;SDS011;3884;48.616;12.872;2022-10-16T01:33:27;6.10;;;3.90;;
7683;SDS011;3884;48.616;12.872;2022-10-16T01:36:02;7.13;;;4.93;;
7683;SDS011;3884;48.616;12.872;2022-10-16T01:38:34;8.40;;;4.33;;
7683;SDS011;3884;48.616;12.872;2022-10-16T01:41:04;12.37;;;5.27;;
7683;SDS011;3884;48.616;12.872;2022-10-16T01:43:39;7.00;;;4.57;;
7683;SDS011;3884;48.616;12.872;2022-10-16T01:46:08;7.80;;;4.07;;
7683;SDS011;3884;48.616;12.872;2022-10-16T01:48:39;4.50;;;3.53;;
7683;SDS011;3884;48.616;12.872;2022-10-16T01:51:08;5.77;;;3.50;;
7683;SDS011;3884;48.616;12.872;2022-10-16T01:53:38;5.93;;;3.77;;
7683;SDS011;3884;48.616;12.872;2022-10-16T01:56:08;7.37;;;4.20;;
7683;SDS011;3884;48.616;12.872;2022-10-16T01:58:40;5.00;;;3.30;;
7683;SDS011;3884;48.616;12.872;2022-10-16T02:01:13;5.47;;;3.70;;
7683;SDS011;3884;48.616;12.872;2022-10-16T02:03:45;9.37;;;4.50;;
7683;SDS011;3884;48.616;12.872;2022-10-16T02:06:15;6.17;;;4.77;;
7683;SDS011;3884;48.616;12.872;2022-10-16T02:08:42;6.20;;;3.30;;
7683;SDS011;3884;48.616;12.872;2022-10-16T02:11:09;4.37;;;3.70;;
7683;SDS011;3884;48.616;12.872;2022-10-16T02:13:37;9.23;;;3.70;;
7683;SDS011;3884;48.616;12.872;2022-10-16T02:16:10;7.63;;;3.83;;
7683;SDS011;3884;48.616;12.872;2022-10-16T02:18:39;5.97;;;4.40;;
7683;SDS011;3884;48.616;12.872;2022-10-16T02:21:08;7.50;;;4.73;;
7683;SDS011;3884;48.616;12.872;2022-10-16T02:23:45;6.00;;;4.43;;
7683;SDS011;3884;48.616;12.872;2022-10-16T02:26:23;6.30;;;3.60;;
7683;SDS011;3884;48.616;12.872;2022-10-16T02:28:57;3.70;;;2.90;;
7683;SDS011;3884;48.616;12.872;2022-10-16T02:31:31;3.40;;;3.10;;
7683;SDS011;3884;48.616;12.872;2022-10-16T02:34:01;3.50;;;3.07;;
7683;SDS011;3884;48.616;12.872;2022-10-16T02:36:30;6.07;;;3.90;;
7683;SDS011;3884;48.616;12.872;2022-10-16T02:38:59;5.97;;;3.63;;
7683;SDS011;3884;48.616;12.872;2022-10-16T02:41:26;8.93;;;3.47;;
7683;SDS011;3884;48.616;12.872;2022-10-16T02:43:54;7.17;;;4.00;;
7683;SDS011;3884;48.616;12.872;2022-10-16T02:46:22;6.50;;;3.47;;
7683;SDS011;3884;48.616;12.872;2022-10-16T02:48:49;4.30;;;3.30;;
7683;SDS011;3884;48.616;12.872;2022-10-16T02:51:16;7.27;;;3.23;;
7683;SDS011;3884;48.616;12.872;2022-10-16T02:53:43;6.40;;;3.03;;
7683;SDS011;3884;48.616;12.872;2022-10-16T02:56:10;4.40;;;3.67;;
7683;SDS011;3884;48.616;12.872;2022-10-16T02:58:37;6.33;;;3.70;;
7683;SDS011;3884;48.616;12.872;2022-10-16T03:01:05;6.03;;;3.47;;
7683;SDS011;3884;48.616;12.872;2022-10-16T03:03:33;6.23;;;3.60;;
7683;SDS011;3884;48.616;12.872;2022-10-16T03:06:00;3.77;;;3.33;;
7683;SDS011;3884;48.616;12.872;2022-10-16T03:08:28;4.17;;;3.77;;
7683;SDS011;3884;48.616;12.872;2022-10-16T03:10:55;4.27;;;3.87;;
7683;SDS011;3884;48.616;12.872;2022-10-16T03:13:22;4.63;;;4.20;;
7683;SDS011;3884;48.616;12.872;2022-10-16T03:15:49;4.90;;;4.40;;
7683;SDS011;3884;48.616;12.872;2022-10-16T03:18:16;4.57;;;3.90;;
7683;SDS011;3884;48.616;12.872;2022-10-16T03:20:44;4.40;;;3.43;;
7683;SDS011;3884;48.616;12.872;2022-10-16T03:23:11;6.03;;;3.80;;
7683;SDS011;3884;48.616;12.872;2022-10-16T03:25:38;4.27;;;3.60;;
7683;SDS011;3884;48.616;12.872;2022-10-16T03:28:06;4.27;;;3.90;;
7683;SDS011;3884;48.616;12.872;2022-10-16T03:30:33;6.03;;;3.60;;
7683;SDS011;3884;48.616;12.872;2022-10-16T03:33:00;12.57;;;4.30;;
7683;SDS011;3884;48.616;12.872;2022-10-16T03:35:27;6.70;;;3.60;;
7683;SDS011;3884;48.616;12.872;2022-10-16T03:37:56;4.63;;;3.50;;
7683;SDS011;3884;48.616;12.872;2022-10-16T03:40:23;4.23;;;3.43;;
7683;SDS011;3884;48.616;12.872;2022-10-16T03:42:50;4.37;;;3.17;;
7683;SDS011;3884;48.616;12.872;2022-10-16T03:45:19;3.43;;;3.13;;
7683;SDS011;3884;48.616;12.872;2022-10-16T03:47:46;8.77;;;3.67;;
7683;SDS011;3884;48.616;12.872;2022-10-16T03:50:13;3.93;;;3.10;;
7683;SDS011;3884;48.616;12.872;2022-10-16T03:52:40;5.13;;;3.20;;
7683;SDS011;3884;48.616;12.872;2022-10-16T03:55:09;8.30;;;3.00;;
7683;SDS011;3884;48.616;12.872;2022-10-16T03:57:36;6.53;;;3.53;;
7683;SDS011;3884;48.616;12.872;2022-10-16T04:00:03;5.73;;;3.40;;
7683;SDS011;3884;48.616;12.872;2022-10-16T04:02:37;3.57;;;3.27;;
7683;SDS011;3884;48.616;12.872;2022-10-16T04:05:04;3.40;;;3.10;;
7683;SDS011;3884;48.616;12.872;2022-10-16T04:07:31;9.03;;;3.10;;
7683;SDS011;3884;48.616;12.872;2022-10-16T04:09:58;5.20;;;3.37;;
7683;SDS011;3884;48.616;12.872;2022-10-16T04:12:27;3.30;;;3.00;;
7683;SDS011;3884;48.616;12.872;2022-10-16T04:14:54;4.80;;;3.03;;
7683;SDS011;3884;48.616;12.872;2022-10-16T04:17:21;6.73;;;2.97;;
7683;SDS011;3884;48.616;12.872;2022-10-16T04:19:48;3.73;;;2.83;;
7683;SDS011;3884;48.616;12.872;2022-10-16T04:22:15;3.63;;;2.77;;
7683;SDS011;3884;48.616;12.872;2022-10-16T04:24:42;4.23;;;3.03;;
7683;SDS011;3884;48.616;12.872;2022-10-16T04:27:09;4.57;;;2.70;;
7683;SDS011;3884;48.616;12.872;2022-10-16T04:29:37;3.30;;;2.70;;
7683;SDS011;3884;48.616;12.872;2022-10-16T04:32:04;4.20;;;3.00;;
7683;SDS011;3884;48.616;12.872;2022-10-16T04:34:33;3.87;;;3.40;;
7683;SDS011;3884;48.616;12.872;2022-10-16T04:37:00;5.40;;;3.03;;
7683;SDS011;3884;48.616;12.872;2022-10-16T04:39:27;6.47;;;3.97;;
7683;SDS011;3884;48.616;12.872;2022-10-16T04:41:54;2.90;;;2.70;;
7683;SDS011;3884;48.616;12.872;2022-10-16T04:44:21;5.73;;;3.40;;
7683;SDS011;3884;48.616;12.872;2022-10-16T04:46:51;3.97;;;3.30;;
7683;SDS011;3884;48.616;12.872;2022-10-16T04:49:18;4.40;;;3.20;;
7683;SDS011;3884;48.616;12.872;2022-10-16T04:51:45;9.13;;;3.27;;
7683;SDS011;3884;48.616;12.872;2022-10-16T04:54:12;29.27;;;5.57;;
7683;SDS011;3884;48.616;12.872;2022-10-16T04:56:39;7.77;;;3.87;;
7683;SDS011;3884;48.616;12.872;2022-10-16T04:59:11;5.80;;;3.30;;
7683;SDS011;3884;48.616;12.872;2022-10-16T05:01:39;4.60;;;3.43;;
7683;SDS011;3884;48.616;12.872;2022-10-16T05:04:08;10.30;;;3.67;;
7683;SDS011;3884;48.616;12.872;2022-10-16T05:06:35;5.17;;;3.10;;
7683;SDS011;3884;48.616;12.872;2022-10-16T05:09:03;9.70;;;3.40;;
7683;SDS011;3884;48.616;12.872;2022-10-16T05:11:31;6.93;;;3.37;;
7683;SDS011;3884;48.616;12.872;2022-10-16T05:13:58;3.80;;;3.50;;
7683;SDS011;3884;48.616;12.872;2022-10-16T05:16:25;10.73;;;3.20;;
7683;SDS011;3884;48.616;12.872;2022-10-16T05:18:53;9.00;;;3.80;;
7683;SDS011;3884;48.616;12.872;2022-10-16T05:21:21;5.13;;;3.37;;
7683;SDS011;3884;48.616;12.872;2022-10-16T05:23:48;4.77;;;3.67;;
7683;SDS011;3884;48.616;12.872;2022-10-16T05:26:15;4.13;;;3.10;;
7683;SDS011;3884;48.616;12.872;2022-10-16T05:28:42;3.40;;;3.10;;
7683;SDS011;3884;48.616;12.872;2022-10-16T05:31:09;3.50;;;3.17;;
7683;SDS011;3884;48.616;12.872;2022-10-16T05:33:36;3.83;;;3.23;;
7683;SDS011;3884;48.616;12.872;2022-10-16T05:36:04;6.27;;;3.90;;
7683;SDS011;3884;48.616;12.872;2022-10-16T05:38:34;3.70;;;3.40;;
7683;SDS011;3884;48.616;12.872;2022-10-16T05:41:01;4.23;;;3.00;;
7683;SDS011;3884;48.616;12.872;2022-10-16T05:43:29;4.97;;;3.63;;
7683;SDS011;3884;48.616;12.872;2022-10-16T05:45:57;4.63;;;4.13;;
7683;SDS011;3884;48.616;12.872;2022-10-16T05:48:25;4.40;;;3.50;;
7683;SDS011;3884;48.616;12.872;2022-10-16T05:50:56;4.13;;;3.53;;
7683;SDS011;3884;48.616;12.872;2022-10-16T05:53:24;5.00;;;3.60;;
7683;SDS011;3884;48.616;12.872;2022-10-16T05:55:53;3.50;;;3.20;;
7683;SDS011;3884;48.616;12.872;2022-10-16T05:58:20;4.23;;;3.50;;
7683;SDS011;3884;48.616;12.872;2022-10-16T06:00:54;4.03;;;3.63;;
7683;SDS011;3884;48.616;12.872;2022-10-16T06:03:22;4.07;;;3.60;;
7683;SDS011;3884;48.616;12.872;2022-10-16T06:05:49;7.33;;;4.07;;
7683;SDS011;3884;48.616;12.872;2022-10-16T06:08:16;5.63;;;4.63;;
7683;SDS011;3884;48.616;12.872;2022-10-16T06:10:43;5.33;;;4.63;;
7683;SDS011;3884;48.616;12.872;2022-10-16T06:13:12;5.37;;;4.87;;
7683;SDS011;3884;48.616;12.872;2022-10-16T06:15:40;5.50;;;5.00;;
7683;SDS011;3884;48.616;12.872;2022-10-16T06:18:08;4.97;;;4.47;;
7683;SDS011;3884;48.616;12.872;2022-10-16T06:20:36;6.27;;;4.97;;
7683;SDS011;3884;48.616;12.872;2022-10-16T06:23:03;5.67;;;5.17;;
7683;SDS011;3884;48.616;12.872;2022-10-16T06:25:30;6.20;;;5.20;;
7683;SDS011;3884;48.616;12.872;2022-10-16T06:27:57;6.20;;;5.60;;
7683;SDS011;3884;48.616;12.872;2022-10-16T06:30:26;5.70;;;5.20;;
7683;SDS011;3884;48.616;12.872;2022-10-16T06:32:53;13.63;;;7.90;;
7683;SDS011;3884;48.616;12.872;2022-10-16T06:35:20;10.17;;;7.27;;
7683;SDS011;3884;48.616;12.872;2022-10-16T06:37:47;10.37;;;8.77;;
7683;SDS011;3884;48.616;12.872;2022-10-16T06:40:14;9.67;;;7.90;;
7683;SDS011;3884;48.616;12.872;2022-10-16T06:42:42;10.73;;;8.30;;
7683;SDS011;3884;48.616;12.872;2022-10-16T06:45:09;9.83;;;8.30;;
7683;SDS011;3884;48.616;12.872;2022-10-16T06:47:39;8.20;;;7.40;;
7683;SDS011;3884;48.616;12.872;2022-10-16T06:50:06;9.43;;;8.43;;
7683;SDS011;3884;48.616;12.872;2022-10-16T06:52:34;11.80;;;10.60;;
7683;SDS011;3884;48.616;12.872;2022-10-16T06:55:01;11.87;;;10.43;;
7683;SDS011;3884;48.616;12.872;2022-10-16T06:57:29;11.30;;;10.07;;
7683;SDS011;3884;48.616;12.872;2022-10-16T06:59:56;11.50;;;10.07;;
7683;SDS011;3884;48.616;12.872;2022-10-16T07:02:23;10.60;;;9.60;;
7683;SDS011;3884;48.616;12.872;2022-10-16T07:04:51;10.63;;;9.50;;
7683;SDS011;3884;48.616;12.872;2022-10-16T07:07:18;10.57;;;9.57;;
7683;SDS011;3884;48.616;12.872;2022-10-16T07:09:45;11.43;;;10.33;;
7683;SDS011;3884;48.616;12.872;2022-10-16T07:12:12;11.50;;;10.30;;
7683;SDS011;3884;48.616;12.872;2022-10-16T07:14:39;11.43;;;10.33;;
7683;SDS011;3884;48.616;12.872;2022-10-16T07:17:06;11.90;;;10.70;;
7683;SDS011;3884;48.616;12.872;2022-10-16T07:19:34;12.73;;;11.53;;
7683;SDS011;3884;48.616;12.872;2022-10-16T07:22:02;11.53;;;10.43;;
7683;SDS011;3884;48.616;12.872;2022-10-16T07:24:30;11.77;;;10.50;;
7683;SDS011;3884;48.616;12.872;2022-10-16T07:26:57;13.07;;;11.43;;
7683;SDS011;3884;48.616;12.872;2022-10-16T07:29:24;12.27;;;11.13;;
7683;SDS011;3884;48.616;12.872;2022-10-16T07:31:51;12.90;;;11.60;;
7683;SDS011;3884;48.616;12.872;2022-10-16T07:34:18;12.30;;;11.03;;
7683;SDS011;3884;48.616;12.872;2022-10-16T07:36:48;12.27;;;11.17;;
7683;SDS011;3884;48.616;12.872;2022-10-16T07:39:17;11.77;;;10.67;;
7683;SDS011;3884;48.616;12.872;2022-10-16T07:41:44;12.27;;;10.90;;
7683;SDS011;3884;48.616;12.872;2022-10-16T07:44:11;11.60;;;10.40;;
7683;SDS011;3884;48.616;12.872;2022-10-16T07:46:38;11.93;;;10.83;;
7683;SDS011;3884;48.616;12.872;2022-10-16T07:49:05;11.47;;;10.27;;
7683;SDS011;3884;48.616;12.872;2022-10-16T07:51:32;11.30;;;10.20;;
7683;SDS011;3884;48.616;12.872;2022-10-16T07:53:59;10.93;;;9.53;;
7683;SDS011;3884;48.616;12.872;2022-10-16T07:56:30;10.43;;;9.43;;
7683;SDS011;3884;48.616;12.872;2022-10-16T07:58:58;10.00;;;8.93;;
7683;SDS011;3884;48.616;12.872;2022-10-16T08:01:25;11.47;;;9.00;;
7683;SDS011;3884;48.616;12.872;2022-10-16T08:03:52;9.63;;;8.43;;
7683;SDS011;3884;48.616;12.872;2022-10-16T08:06:20;11.30;;;10.10;;
7683;SDS011;3884;48.616;12.872;2022-10-16T08:08:48;9.77;;;8.87;;
7683;SDS011;3884;48.616;12.872;2022-10-16T08:11:15;9.37;;;8.50;;
7683;SDS011;3884;48.616;12.872;2022-10-16T08:13:44;9.40;;;8.33;;
7683;SDS011;3884;48.616;12.872;2022-10-16T08:16:11;10.77;;;8.33;;
7683;SDS011;3884;48.616;12.872;2022-10-16T08:18:38;8.60;;;7.80;;
7683;SDS011;3884;48.616;12.872;2022-10-16T08:21:07;7.70;;;6.83;;
7683;SDS011;3884;48.616;12.872;2022-10-16T08:23:42;7.67;;;6.63;;
7683;SDS011;3884;48.616;12.872;2022-10-16T08:26:10;8.57;;;6.30;;
7683;SDS011;3884;48.616;12.872;2022-10-16T08:28:38;7.47;;;6.83;;
7683;SDS011;3884;48.616;12.872;2022-10-16T08:31:07;7.67;;;6.33;;
7683;SDS011;3884;48.616;12.872;2022-10-16T08:33:36;11.50;;;6.37;;
7683;SDS011;3884;48.616;12.872;2022-10-16T08:36:03;7.70;;;6.57;;
7683;SDS011;3884;48.616;12.872;2022-10-16T08:38:31;8.23;;;6.77;;
7683;SDS011;3884;48.616;12.872;2022-10-16T08:41:02;8.40;;;7.60;;
7683;SDS011;3884;48.616;12.872;2022-10-16T08:44:01;9.30;;;7.37;;
7683;SDS011;3884;48.616;12.872;2022-10-16T08:46:42;9.03;;;8.10;;
7683;SDS011;3884;48.616;12.872;2022-10-16T08:49:15;8.83;;;7.47;;
7683;SDS011;3884;48.616;12.872;2022-10-16T08:51:43;8.00;;;7.27;;
7683;SDS011;3884;48.616;12.872;2022-10-16T08:54:15;8.63;;;6.90;;
7683;SDS011;3884;48.616;12.872;2022-10-16T08:56:54;8.77;;;7.83;;
7683;SDS011;3884;48.616;12.872;2022-10-16T08:59:22;10.10;;;7.37;;
7683;SDS011;3884;48.616;12.872;2022-10-16T09:01:51;8.50;;;7.80;;
7683;SDS011;3884;48.616;12.872;2022-10-16T09:07:16;9.47;;;8.57;;
7683;SDS011;3884;48.616;12.872;2022-10-16T09:09:52;9.70;;;8.80;;
7683;SDS011;3884;48.616;12.872;2022-10-16T09:12:28;9.70;;;8.80;;
7683;SDS011;3884;48.616;12.872;2022-10-16T09:15:07;9.10;;;8.20;;
7683;SDS011;3884;48.616;12.872;2022-10-16T09:17:47;9.53;;;8.70;;
7683;SDS011;3884;48.616;12.872;2022-10-16T09:23:15;7.97;;;7.17;;
7683;SDS011;3884;48.616;12.872;2022-10-16T09:25:44;8.30;;;7.47;;
7683;SDS011;3884;48.616;12.872;2022-10-16T09:28:14;7.87;;;7.17;;
7683;SDS011;3884;48.616;12.872;2022-10-16T09:30:41;7.77;;;6.70;;
7683;SDS011;3884;48.616;12.872;2022-10-16T09:33:10;7.27;;;6.57;;
7683;SDS011;3884;48.616;12.872;2022-10-16T09:35:40;7.17;;;6.00;;
7683;SDS011;3884;48.616;12.872;2022-10-16T09:38:09;7.00;;;6.23;;
7683;SDS011;3884;48.616;12.872;2022-10-16T09:40:48;6.80;;;6.13;;
7683;SDS011;3884;48.616;12.872;2022-10-16T09:43:19;6.80;;;5.60;;
7683;SDS011;3884;48.616;12.872;2022-10-16T09:45:55;6.23;;;5.63;;
7683;SDS011;3884;48.616;12.872;2022-10-16T09:48:24;7.23;;;5.60;;
7683;SDS011;3884;48.616;12.872;2022-10-16T09:50:58;6.20;;;5.70;;
7683;SDS011;3884;48.616;12.872;2022-10-16T09:53:37;6.20;;;5.60;;
7683;SDS011;3884;48.616;12.872;2022-10-16T09:56:06;6.20;;;5.70;;
7683;SDS011;3884;48.616;12.872;2022-10-16T09:58:34;5.80;;;5.30;;
7683;SDS011;3884;48.616;12.872;2022-10-16T10:01:02;7.33;;;5.90;;
7683;SDS011;3884;48.616;12.872;2022-10-16T10:03:33;6.70;;;6.07;;
7683;SDS011;3884;48.616;12.872;2022-10-16T10:06:05;7.30;;;6.10;;
7683;SDS011;3884;48.616;12.872;2022-10-16T10:08:41;7.23;;;6.53;;
7683;SDS011;3884;48.616;12.872;2022-10-16T10:11:18;7.77;;;6.97;;
7683;SDS011;3884;48.616;12.872;2022-10-16T10:14:05;7.50;;;6.27;;
7683;SDS011;3884;48.616;12.872;2022-10-16T10:16:32;8.63;;;6.87;;
7683;SDS011;3884;48.616;12.872;2022-10-16T10:19:01;10.53;;;6.93;;
7683;SDS011;3884;48.616;12.872;2022-10-16T10:21:28;7.83;;;7.03;;
7683;SDS011;3884;48.616;12.872;2022-10-16T10:23:56;8.40;;;7.33;;
7683;SDS011;3884;48.616;12.872;2022-10-16T10:26:23;9.13;;;7.40;;
7683;SDS011;3884;48.616;12.872;2022-10-16T10:28:55;8.30;;;7.30;;
7683;SDS011;3884;48.616;12.872;2022-10-16T10:31:32;7.27;;;6.50;;
7683;SDS011;3884;48.616;12.872;2022-10-16T10:34:15;7.27;;;6.47;;
7683;SDS011;3884;48.616;12.872;2022-10-16T10:37:02;7.70;;;6.90;;
7683;SDS011;3884;48.616;12.872;2022-10-16T10:39:38;8.47;;;7.33;;
7683;SDS011;3884;48.616;12.872;2022-10-16T10:42:13;7.77;;;6.60;;
7683;SDS011;3884;48.616;12.872;2022-10-16T10:44:54;7.53;;;6.57;;
7683;SDS011;3884;48.616;12.872;2022-10-16T10:47:40;7.67;;;6.97;;
7683;SDS011;3884;48.616;12.872;2022-10-16T10:50:17;7.50;;;6.73;;
7683;SDS011;3884;48.616;12.872;2022-10-16T10:52:53;7.40;;;6.20;;
7683;SDS011;3884;48.616;12.872;2022-10-16T10:55:31;7.93;;;6.80;;
7683;SDS011;3884;48.616;12.872;2022-10-16T10:58:15;6.40;;;5.80;;
7683;SDS011;3884;48.616;12.872;2022-10-16T11:01:01;7.73;;;6.17;;
7683;SDS011;3884;48.616;12.872;2022-10-16T11:03:37;9.33;;;6.50;;
7683;SDS011;3884;48.616;12.872;2022-10-16T11:06:26;7.57;;;6.33;;
7683;SDS011;3884;48.616;12.872;2022-10-16T11:08:58;7.03;;;6.33;;
7683;SDS011;3884;48.616;12.872;2022-10-16T11:11:29;7.03;;;6.33;;
7683;SDS011;3884;48.616;12.872;2022-10-16T11:14:03;7.83;;;7.03;;
7683;SDS011;3884;48.616;12.872;2022-10-16T11:16:37;7.03;;;6.07;;
7683;SDS011;3884;48.616;12.872;2022-10-16T11:19:10;6.50;;;5.90;;
7683;SDS011;3884;48.616;12.872;2022-10-16T11:21:54;7.47;;;5.97;;
7683;SDS011;3884;48.616;12.872;2022-10-16T11:24:29;6.90;;;6.23;;
7683;SDS011;3884;48.616;12.872;2022-10-16T11:27:07;6.90;;;6.20;;
7683;SDS011;3884;48.616;12.872;2022-10-16T11:29:35;7.77;;;6.10;;
7683;SDS011;3884;48.616;12.872;2022-10-16T11:32:14;8.27;;;5.87;;
7683;SDS011;3884;48.616;12.872;2022-10-16T11:34:50;10.00;;;5.50;;
7683;SDS011;3884;48.616;12.872;2022-10-16T11:37:25;7.80;;;5.43;;
7683;SDS011;3884;48.616;12.872;2022-10-16T11:39:57;6.67;;;5.77;;
7683;SDS011;3884;48.616;12.872;2022-10-16T11:42:32;6.53;;;5.93;;
7683;SDS011;3884;48.616;12.872;2022-10-16T11:45:07;6.47;;;5.87;;
7683;SDS011;3884;48.616;12.872;2022-10-16T11:47:44;7.37;;;5.83;;
7683;SDS011;3884;48.616;12.872;2022-10-16T11:50:17;7.30;;;5.23;;
7683;SDS011;3884;48.616;12.872;2022-10-16T11:52:52;5.67;;;5.17;;
7683;SDS011;3884;48.616;12.872;2022-10-16T11:55:25;5.60;;;4.97;;
7683;SDS011;3884;48.616;12.872;2022-10-16T11:57:57;5.83;;;5.03;;
7683;SDS011;3884;48.616;12.872;2022-10-16T12:00:30;5.03;;;4.43;;
7683;SDS011;3884;48.616;12.872;2022-10-16T12:03:03;5.87;;;4.90;;
7683;SDS011;3884;48.616;12.872;2022-10-16T12:05:46;5.10;;;4.60;;
7683;SDS011;3884;48.616;12.872;2022-10-16T12:08:22;5.33;;;4.83;;
7683;SDS011;3884;48.616;12.872;2022-10-16T12:10:50;5.53;;;4.53;;
7683;SDS011;3884;48.616;12.872;2022-10-16T12:13:28;4.67;;;4.27;;
7683;SDS011;3884;48.616;12.872;2022-10-16T12:16:04;5.43;;;4.63;;
7683;SDS011;3884;48.616;12.872;2022-10-16T12:18:32;5.00;;;4.50;;
7683;SDS011;3884;48.616;12.872;2022-10-16T12:20:59;4.60;;;4.20;;
7683;SDS011;3884;48.616;12.872;2022-10-16T12:23:32;4.47;;;3.90;;
7683;SDS011;3884;48.616;12.872;2022-10-16T12:26:02;4.53;;;3.80;;
7683;SDS011;3884;48.616;12.872;2022-10-16T12:28:31;5.43;;;4.40;;
7683;SDS011;3884;48.616;12.872;2022-10-16T12:31:00;5.50;;;4.10;;
7683;SDS011;3884;48.616;12.872;2022-10-16T12:33:29;4.13;;;3.83;;
7683;SDS011;3884;48.616;12.872;2022-10-16T12:35:58;6.17;;;4.23;;
7683;SDS011;3884;48.616;12.872;2022-10-16T12:38:28;4.57;;;4.10;;
7683;SDS011;3884;48.616;12.872;2022-10-16T12:41:02;5.00;;;4.43;;
7683;SDS011;3884;48.616;12.872;2022-10-16T12:43:38;5.10;;;4.40;;
7683;SDS011;3884;48.616;12.872;2022-10-16T12:49:22;5.07;;;4.57;;
7683;SDS011;3884;48.616;12.872;2022-10-16T12:51:56;4.60;;;4.20;;
7683;SDS011;3884;48.616;12.872;2022-10-16T12:54:25;4.60;;;4.20;;
7683;SDS011;3884;48.616;12.872;2022-10-16T12:57:02;4.37;;;3.80;;
7683;SDS011;3884;48.616;12.872;2022-10-16T12:59:38;4.53;;;3.87;;
7683;SDS011;3884;48.616;12.872;2022-10-16T13:02:19;4.67;;;4.00;;
7683;SDS011;3884;48.616;12.872;2022-10-16T13:05:16;5.30;;;4.20;;
7683;SDS011;3884;48.616;12.872;2022-10-16T13:07:55;5.33;;;4.30;;
7683;SDS011;3884;48.616;12.872;2022-10-16T13:10:31;4.60;;;4.20;;
7683;SDS011;3884;48.616;12.872;2022-10-16T13:16:05;4.70;;;4.30;;
7683;SDS011;3884;48.616;12.872;2022-10-16T13:18:42;4.93;;;3.90;;
7683;SDS011;3884;48.616;12.872;2022-10-16T13:21:23;5.83;;;4.20;;
7683;SDS011;3884;48.616;12.872;2022-10-16T13:23:59;4.30;;;3.90;;
7683;SDS011;3884;48.616;12.872;2022-10-16T13:26:39;4.30;;;3.90;;
7683;SDS011;3884;48.616;12.872;2022-10-16T13:29:12;4.87;;;4.03;;
7683;SDS011;3884;48.616;12.872;2022-10-16T13:31:40;5.83;;;3.90;;
7683;SDS011;3884;48.616;12.872;2022-10-16T13:34:11;4.97;;;4.20;;
7683;SDS011;3884;48.616;12.872;2022-10-16T13:36:43;4.63;;;4.23;;
7683;SDS011;3884;48.616;12.872;2022-10-16T13:39:12;4.50;;;4.10;;
7683;SDS011;3884;48.616;12.872;2022-10-16T13:41:42;6.37;;;4.23;;
7683;SDS011;3884;48.616;12.872;2022-10-16T13:44:14;6.87;;;4.50;;
7683;SDS011;3884;48.616;12.872;2022-10-16T13:46:45;4.90;;;4.50;;
7683;SDS011;3884;48.616;12.872;2022-10-16T13:49:13;4.73;;;4.27;;
7683;SDS011;3884;48.616;12.872;2022-10-16T13:51:41;4.77;;;4.30;;
7683;SDS011;3884;48.616;12.872;2022-10-16T13:54:21;5.10;;;4.60;;
7683;SDS011;3884;48.616;12.872;2022-10-16T13:56:48;6.70;;;4.00;;
7683;SDS011;3884;48.616;12.872;2022-10-16T13:59:24;4.83;;;4.43;;
7683;SDS011;3884;48.616;12.872;2022-10-16T14:01:53;4.80;;;4.30;;
7683;SDS011;3884;48.616;12.872;2022-10-16T14:04:23;4.47;;;3.87;;
7683;SDS011;3884;48.616;12.872;2022-10-16T14:06:54;7.63;;;4.60;;
7683;SDS011;3884;48.616;12.872;2022-10-16T14:09:22;5.67;;;3.80;;
7683;SDS011;3884;48.616;12.872;2022-10-16T14:11:52;6.63;;;4.23;;
7683;SDS011;3884;48.616;12.872;2022-10-16T14:14:23;5.33;;;4.00;;
7683;SDS011;3884;48.616;12.872;2022-10-16T14:16:53;7.27;;;4.63;;
7683;SDS011;3884;48.616;12.872;2022-10-16T14:19:21;4.90;;;4.00;;
7683;SDS011;3884;48.616;12.872;2022-10-16T14:21:50;5.73;;;4.60;;
7683;SDS011;3884;48.616;12.872;2022-10-16T14:24:25;5.00;;;4.50;;
7683;SDS011;3884;48.616;12.872;2022-10-16T14:26:54;7.10;;;4.20;;
7683;SDS011;3884;48.616;12.872;2022-10-16T14:29:22;5.00;;;4.33;;
7683;SDS011;3884;48.616;12.872;2022-10-16T14:31:56;7.50;;;4.70;;
7683;SDS011;3884;48.616;12.872;2022-10-16T14:34:25;5.90;;;4.27;;
7683;SDS011;3884;48.616;12.872;2022-10-16T14:36:53;5.53;;;4.90;;
7683;SDS011;3884;48.616;12.872;2022-10-16T14:39:21;6.40;;;4.80;;
7683;SDS011;3884;48.616;12.872;2022-10-16T14:41:52;5.77;;;4.20;;
7683;SDS011;3884;48.616;12.872;2022-10-16T14:44:22;5.60;;;4.90;;
7683;SDS011;3884;48.616;12.872;2022-10-16T14:46:57;10.03;;;4.80;;
7683;SDS011;3884;48.616;12.872;2022-10-16T14:49:33;7.33;;;5.10;;
7683;SDS011;3884;48.616;12.872;2022-10-16T14:52:00;5.00;;;4.50;;
7683;SDS011;3884;48.616;12.872;2022-10-16T14:54:28;6.50;;;4.80;;
7683;SDS011;3884;48.616;12.872;2022-10-16T14:56:55;5.63;;;4.43;;
7683;SDS011;3884;48.616;12.872;2022-10-16T14:59:24;5.17;;;4.30;;
7683;SDS011;3884;48.616;12.872;2022-10-16T15:01:58;5.37;;;4.30;;
7683;SDS011;3884;48.616;12.872;2022-10-16T15:04:25;4.90;;;4.40;;
7683;SDS011;3884;48.616;12.872;2022-10-16T15:06:52;5.87;;;4.80;;
7683;SDS011;3884;48.616;12.872;2022-10-16T15:09:20;7.57;;;4.87;;
7683;SDS011;3884;48.616;12.872;2022-10-16T15:11:47;5.23;;;4.73;;
7683;SDS011;3884;48.616;12.872;2022-10-16T15:14:14;5.27;;;4.27;;
7683;SDS011;3884;48.616;12.872;2022-10-16T15:16:42;4.63;;;4.20;;
7683;SDS011;3884;48.616;12.872;2022-10-16T15:19:09;5.53;;;4.30;;
7683;SDS011;3884;48.616;12.872;2022-10-16T15:21:36;6.57;;;4.93;;
7683;SDS011;3884;48.616;12.872;2022-10-16T15:24:05;6.93;;;4.43;;
7683;SDS011;3884;48.616;12.872;2022-10-16T15:26:37;5.63;;;4.70;;
7683;SDS011;3884;48.616;12.872;2022-10-16T15:29:04;5.13;;;4.63;;